sensor_id;sensor_type;location;lat;lon;timestamp;pressure;altitude;pressure_sealevel;temperature;humidity
71239;BME280;61342;51.442;7.370;2022-12-13T00:00:56;99682.53;;;-0.94;77.42
71239;BME280;61342;51.442;7.370;2022-12-13T00:01:57;99667.03;;;-0.98;77.33
71239;BME280;61342;51.442;7.370;2022-12-13T00:02:57;99670.97;;;-0.96;77.42
71239;BME280;61342;51.442;7.370;2022-12-13T00:04:00;99670.97;;;-0.96;77.44
71239;BME280;61342;51.442;7.370;2022-12-13T00:05:00;99664.34;;;-1.02;77.41
71239;BME280;61342;51.442;7.370;2022-12-13T00:06:04;99681.91;;;-0.98;77.38
71239;BME280;61342;51.442;7.370;2022-12-13T00:07:05;99669.84;;;-0.98;77.31
71239;BME280;61342;51.442;7.370;2022-12-13T00:08:05;99666.88;;;-1.04;77.32
71239;BME280;61342;51.442;7.370;2022-12-13T00:09:05;99675.97;;;-1.00;77.38
71239;BME280;61342;51.442;7.370;2022-12-13T00:10:06;99673.16;;;-1.00;77.25
71239;BME280;61342;51.442;7.370;2022-12-13T00:11:10;99670.75;;;-1.01;77.17
71239;BME280;61342;51.442;7.370;2022-12-13T00:12:10;99670.13;;;-1.05;77.33
71239;BME280;61342;51.442;7.370;2022-12-13T00:13:11;99675.78;;;-1.05;77.48
71239;BME280;61342;51.442;7.370;2022-12-13T00:14:11;99676.25;;;-1.07;77.22
71239;BME280;61342;51.442;7.370;2022-12-13T00:15:13;99672.94;;;-1.05;77.35
71239;BME280;61342;51.442;7.370;2022-12-13T00:16:21;99667.47;;;-1.09;77.49
71239;BME280;61342;51.442;7.370;2022-12-13T00:17:22;99670.28;;;-1.09;77.34
71239;BME280;61342;51.442;7.370;2022-12-13T00:18:23;99669.03;;;-1.08;77.58
71239;BME280;61342;51.442;7.370;2022-12-13T00:19:26;99666.69;;;-1.09;77.46
71239;BME280;61342;51.442;7.370;2022-12-13T00:20:27;99662.75;;;-1.12;77.51
71239;BME280;61342;51.442;7.370;2022-12-13T00:21:29;99674.34;;;-1.10;77.70
71239;BME280;61342;51.442;7.370;2022-12-13T00:22:30;99657.56;;;-1.13;77.31
71239;BME280;61342;51.442;7.370;2022-12-13T00:23:31;99667.94;;;-1.10;77.32
71239;BME280;61342;51.442;7.370;2022-12-13T00:24:31;99659.00;;;-1.17;77.35
71239;BME280;61342;51.442;7.370;2022-12-13T00:25:32;99661.03;;;-1.09;77.32
71239;BME280;61342;51.442;7.370;2022-12-13T00:26:33;99663.56;;;-1.11;77.62
71239;BME280;61342;51.442;7.370;2022-12-13T00:27:34;99665.56;;;-1.12;77.29
71239;BME280;61342;51.442;7.370;2022-12-13T00:28:34;99653.34;;;-1.17;77.60
71239;BME280;61342;51.442;7.370;2022-12-13T00:29:34;99664.03;;;-1.13;77.34
71239;BME280;61342;51.442;7.370;2022-12-13T00:30:35;99668.09;;;-1.14;77.36
71239;BME280;61342;51.442;7.370;2022-12-13T00:31:35;99662.59;;;-1.17;77.73
71239;BME280;61342;51.442;7.370;2022-12-13T00:32:36;99656.16;;;-1.17;77.43
71239;BME280;61342;51.442;7.370;2022-12-13T00:33:37;99654.59;;;-1.18;77.58
71239;BME280;61342;51.442;7.370;2022-12-13T00:34:39;99651.00;;;-1.19;77.38
71239;BME280;61342;51.442;7.370;2022-12-13T00:35:40;99658.22;;;-1.18;77.82
71239;BME280;61342;51.442;7.370;2022-12-13T00:36:40;99661.03;;;-1.18;77.54
71239;BME280;61342;51.442;7.370;2022-12-13T00:37:41;99649.13;;;-1.22;77.46
71239;BME280;61342;51.442;7.370;2022-12-13T00:38:41;99647.53;;;-1.23;77.66
71239;BME280;61342;51.442;7.370;2022-12-13T00:39:41;99653.81;;;-1.19;77.39
71239;BME280;61342;51.442;7.370;2022-12-13T00:40:42;99651.47;;;-1.20;77.53
71239;BME280;61342;51.442;7.370;2022-12-13T00:41:42;99649.91;;;-1.21;77.56
71239;BME280;61342;51.442;7.370;2022-12-13T00:42:43;99649.56;;;-1.23;77.82
71239;BME280;61342;51.442;7.370;2022-12-13T00:43:44;99658.34;;;-1.21;77.85
71239;BME280;61342;51.442;7.370;2022-12-13T00:44:45;99653.97;;;-1.22;77.61
71239;BME280;61342;51.442;7.370;2022-12-13T00:45:45;99655.66;;;-1.25;77.83
71239;BME280;61342;51.442;7.370;2022-12-13T00:46:46;99646.56;;;-1.29;77.61
71239;BME280;61342;51.442;7.370;2022-12-13T00:47:46;99653.31;;;-1.26;77.30
71239;BME280;61342;51.442;7.370;2022-12-13T00:48:48;99643.28;;;-1.27;77.96
71239;BME280;61342;51.442;7.370;2022-12-13T00:49:49;99646.09;;;-1.27;77.76
71239;BME280;61342;51.442;7.370;2022-12-13T00:50:49;99654.56;;;-1.27;77.75
71239;BME280;61342;51.442;7.370;2022-12-13T00:51:50;99650.19;;;-1.28;77.71
71239;BME280;61342;51.442;7.370;2022-12-13T00:52:50;99653.00;;;-1.28;77.79
71239;BME280;61342;51.442;7.370;2022-12-13T00:53:51;99645.47;;;-1.31;77.74
71239;BME280;61342;51.442;7.370;2022-12-13T00:54:51;99649.56;;;-1.32;78.05
71239;BME280;61342;51.442;7.370;2022-12-13T00:55:52;99641.09;;;-1.32;77.88
71239;BME280;61342;51.442;7.370;2022-12-13T00:56:52;99632.91;;;-1.39;77.92
71239;BME280;61342;51.442;7.370;2022-12-13T00:57:52;99649.56;;;-1.32;77.82
71239;BME280;61342;51.442;7.370;2022-12-13T00:58:54;99650.81;;;-1.33;77.85
71239;BME280;61342;51.442;7.370;2022-12-13T00:59:54;99638.41;;;-1.36;77.95
71239;BME280;61342;51.442;7.370;2022-12-13T01:01:05;99647.34;;;-1.37;77.56
71239;BME280;61342;51.442;7.370;2022-12-13T01:02:06;99645.00;;;-1.39;77.66
71239;BME280;61342;51.442;7.370;2022-12-13T01:03:07;99644.19;;;-1.39;77.73
71239;BME280;61342;51.442;7.370;2022-12-13T01:04:19;99635.06;;;-1.52;77.83
71239;BME280;61342;51.442;7.370;2022-12-13T01:05:20;99648.28;;;-1.40;77.62
71239;BME280;61342;51.442;7.370;2022-12-13T01:06:25;99652.34;;;-1.41;77.58
71239;BME280;61342;51.442;7.370;2022-12-13T01:07:26;99656.41;;;-1.42;77.68
71239;BME280;61342;51.442;7.370;2022-12-13T01:08:27;99651.53;;;-1.42;77.60
71239;BME280;61342;51.442;7.370;2022-12-13T01:09:28;99640.44;;;-1.45;77.59
71239;BME280;61342;51.442;7.370;2022-12-13T01:10:30;99649.53;;;-1.41;77.61
71239;BME280;61342;51.442;7.370;2022-12-13T01:11:30;99638.38;;;-1.45;77.97
71239;BME280;61342;51.442;7.370;2022-12-13T01:12:31;99645.91;;;-1.42;77.96
71239;BME280;61342;51.442;7.370;2022-12-13T01:13:32;99630.22;;;-1.52;77.98
71239;BME280;61342;51.442;7.370;2022-12-13T01:14:34;99638.84;;;-1.46;77.92
71239;BME280;61342;51.442;7.370;2022-12-13T01:15:39;99642.00;;;-1.44;77.96
71239;BME280;61342;51.442;7.370;2022-12-13T01:16:39;99640.44;;;-1.45;77.84
71239;BME280;61342;51.442;7.370;2022-12-13T01:17:39;99636.50;;;-1.48;77.79
71239;BME280;61342;51.442;7.370;2022-12-13T01:18:41;99639.97;;;-1.44;77.81
71239;BME280;61342;51.442;7.370;2022-12-13T01:19:41;99644.03;;;-1.45;77.64
71239;BME280;61342;51.442;7.370;2022-12-13T01:20:41;99645.25;;;-1.46;77.66
71239;BME280;61342;51.442;7.370;2022-12-13T01:21:42;99647.78;;;-1.48;77.72
71239;BME280;61342;51.442;7.370;2022-12-13T01:22:42;99650.13;;;-1.46;77.67
71239;BME280;61342;51.442;7.370;2022-12-13T01:23:43;99649.34;;;-1.47;77.61
71239;BME280;61342;51.442;7.370;2022-12-13T01:24:44;99642.91;;;-1.47;77.56
71239;BME280;61342;51.442;7.370;2022-12-13T01:25:44;99642.91;;;-1.47;77.64
71239;BME280;61342;51.442;7.370;2022-12-13T01:26:45;99643.84;;;-1.50;77.80
71239;BME280;61342;51.442;7.370;2022-12-13T01:27:45;99636.94;;;-1.58;77.80
71239;BME280;61342;51.442;7.370;2022-12-13T01:28:46;99643.06;;;-1.51;77.37
71239;BME280;61342;51.442;7.370;2022-12-13T01:29:46;99650.25;;;-1.50;77.76
71239;BME280;61342;51.442;7.370;2022-12-13T01:30:58;99647.91;;;-1.51;77.55
71239;BME280;61342;51.442;7.370;2022-12-13T01:31:58;99651.66;;;-1.54;77.61
71239;BME280;61342;51.442;7.370;2022-12-13T01:32:59;99655.88;;;-1.50;77.61
71239;BME280;61342;51.442;7.370;2022-12-13T01:33:59;99652.75;;;-1.52;77.50
71239;BME280;61342;51.442;7.370;2022-12-13T01:34:59;99663.22;;;-1.52;77.54
71239;BME280;61342;51.442;7.370;2022-12-13T01:36:01;99655.59;;;-1.52;77.63
71239;BME280;61342;51.442;7.370;2022-12-13T01:37:02;99654.47;;;-1.54;77.64
71239;BME280;61342;51.442;7.370;2022-12-13T01:38:02;99648.50;;;-1.56;77.58
71239;BME280;61342;51.442;7.370;2022-12-13T01:39:02;99657.75;;;-1.56;77.85
71239;BME280;61342;51.442;7.370;2022-12-13T01:40:03;99661.34;;;-1.55;77.55
71239;BME280;61342;51.442;7.370;2022-12-13T01:41:05;99656.50;;;-1.55;77.71
71239;BME280;61342;51.442;7.370;2022-12-13T01:42:05;99661.34;;;-1.55;77.61
71239;BME280;61342;51.442;7.370;2022-12-13T01:43:10;99658.22;;;-1.57;77.88
71239;BME280;61342;51.442;7.370;2022-12-13T01:45:49;99661.94;;;-1.60;77.74
71239;BME280;61342;51.442;7.370;2022-12-13T01:46:49;99656.31;;;-1.60;77.96
71239;BME280;61342;51.442;7.370;2022-12-13T01:47:56;99654.13;;;-1.65;77.88
71239;BME280;61342;51.442;7.370;2022-12-13T01:49:05;99655.22;;;-1.63;77.74
71239;BME280;61342;51.442;7.370;2022-12-13T01:50:11;99658.03;;;-1.63;77.98
71239;BME280;61342;51.442;7.370;2022-12-13T01:51:17;99662.88;;;-1.63;77.69
71239;BME280;61342;51.442;7.370;2022-12-13T01:52:18;99661.63;;;-1.62;77.94
71239;BME280;61342;51.442;7.370;2022-12-13T01:53:22;99662.88;;;-1.63;77.60
71239;BME280;61342;51.442;7.370;2022-12-13T01:54:28;99658.19;;;-1.66;77.67
71239;BME280;61342;51.442;7.370;2022-12-13T01:55:35;99673.19;;;-1.69;77.99
71239;BME280;61342;51.442;7.370;2022-12-13T01:56:42;99659.09;;;-1.69;77.84
71239;BME280;61342;51.442;7.370;2022-12-13T01:57:45;99658.78;;;-1.71;78.02
71239;BME280;61342;51.442;7.370;2022-12-13T01:58:49;99657.06;;;-1.69;78.03
71239;BME280;61342;51.442;7.370;2022-12-13T01:59:50;99647.84;;;-1.69;77.87
71239;BME280;61342;51.442;7.370;2022-12-13T02:00:53;99655.31;;;-1.75;77.80
71239;BME280;61342;51.442;7.370;2022-12-13T02:01:53;99653.25;;;-1.74;77.83
71239;BME280;61342;51.442;7.370;2022-12-13T02:02:57;99655.94;;;-1.71;78.02
71239;BME280;61342;51.442;7.370;2022-12-13T02:03:58;99656.09;;;-1.74;77.73
71239;BME280;61342;51.442;7.370;2022-12-13T02:05:06;99645.63;;;-1.74;77.99
71239;BME280;61342;51.442;7.370;2022-12-13T02:06:31;99649.81;;;-1.78;77.74
71239;BME280;61342;51.442;7.370;2022-12-13T02:07:34;99652.19;;;-1.77;77.86
71239;BME280;61342;51.442;7.370;2022-12-13T02:08:37;99651.38;;;-1.77;77.91
71239;BME280;61342;51.442;7.370;2022-12-13T02:09:40;99648.25;;;-1.79;78.12
71239;BME280;61342;51.442;7.370;2022-12-13T02:10:41;99648.09;;;-1.85;77.99
71239;BME280;61342;51.442;7.370;2022-12-13T02:11:42;99651.53;;;-1.81;77.80
71239;BME280;61342;51.442;7.370;2022-12-13T02:12:44;99656.38;;;-1.81;78.18
71239;BME280;61342;51.442;7.370;2022-12-13T02:13:44;99648.38;;;-1.83;77.91
71239;BME280;61342;51.442;7.370;2022-12-13T02:14:44;99652.44;;;-1.84;77.84
71239;BME280;61342;51.442;7.370;2022-12-13T02:16:00;99659.19;;;-1.81;78.03
71239;BME280;61342;51.442;7.370;2022-12-13T02:27:21;99660.53;;;-1.95;77.76
71239;BME280;61342;51.442;7.370;2022-12-13T02:30:20;99658.63;;;-1.98;78.17
71239;BME280;61342;51.442;7.370;2022-12-13T02:31:29;99660.66;;;-1.98;77.95
71239;BME280;61342;51.442;7.370;2022-12-13T02:32:37;99658.63;;;-1.98;77.99
71239;BME280;61342;51.442;7.370;2022-12-13T02:33:48;99656.41;;;-2.03;77.78
71239;BME280;61342;51.442;7.370;2022-12-13T02:35:07;99657.97;;;-2.02;77.88
71239;BME280;61342;51.442;7.370;2022-12-13T02:36:19;99659.53;;;-2.01;78.17
71239;BME280;61342;51.442;7.370;2022-12-13T02:40:06;99655.63;;;-2.03;78.18
71239;BME280;61342;51.442;7.370;2022-12-13T02:41:34;99656.06;;;-2.05;77.79
71239;BME280;61342;51.442;7.370;2022-12-13T02:42:56;99653.41;;;-2.08;78.18
71239;BME280;61342;51.442;7.370;2022-12-13T02:44:21;99653.88;;;-2.10;77.91
71239;BME280;61342;51.442;7.370;2022-12-13T02:45:29;99655.09;;;-2.11;78.03
71239;BME280;61342;51.442;7.370;2022-12-13T02:46:34;99653.06;;;-2.10;78.14
71239;BME280;61342;51.442;7.370;2022-12-13T02:47:37;99655.88;;;-2.10;78.05
71239;BME280;61342;51.442;7.370;2022-12-13T02:48:39;99651.06;;;-2.10;78.01
71239;BME280;61342;51.442;7.370;2022-12-13T02:49:46;99644.78;;;-2.14;77.96
71239;BME280;61342;51.442;7.370;2022-12-13T02:50:47;99647.91;;;-2.12;78.13
71239;BME280;61342;51.442;7.370;2022-12-13T02:51:50;99649.47;;;-2.11;78.26
71239;BME280;61342;51.442;7.370;2022-12-13T02:52:52;99655.09;;;-2.11;78.36
71239;BME280;61342;51.442;7.370;2022-12-13T02:53:54;99637.22;;;-2.17;78.17
71239;BME280;61342;51.442;7.370;2022-12-13T02:54:55;99653.06;;;-2.10;77.96
71239;BME280;61342;51.442;7.370;2022-12-13T02:55:56;99638.34;;;-2.14;78.15
71239;BME280;61342;51.442;7.370;2022-12-13T02:56:58;99650.41;;;-2.14;78.14
71239;BME280;61342;51.442;7.370;2022-12-13T02:57:59;99651.94;;;-2.13;78.10
71239;BME280;61342;51.442;7.370;2022-12-13T02:59:02;99643.31;;;-2.18;77.98
71239;BME280;61342;51.442;7.370;2022-12-13T03:00:10;99649.75;;;-2.18;78.28
71239;BME280;61342;51.442;7.370;2022-12-13T03:01:48;99646.94;;;-2.18;77.87
71239;BME280;61342;51.442;7.370;2022-12-13T03:04:43;99642.56;;;-2.19;78.12
71239;BME280;61342;51.442;7.370;2022-12-13T03:08:09;99640.31;;;-2.24;77.78
71239;BME280;61342;51.442;7.370;2022-12-13T03:10:31;99639.66;;;-2.28;77.93
71239;BME280;61342;51.442;7.370;2022-12-13T03:12:04;99645.31;;;-2.28;77.79
71239;BME280;61342;51.442;7.370;2022-12-13T03:13:32;99652.50;;;-2.27;78.00
71239;BME280;61342;51.442;7.370;2022-12-13T03:14:40;99646.22;;;-2.30;77.93
71239;BME280;61342;51.442;7.370;2022-12-13T03:15:53;99639.59;;;-2.36;77.79
71239;BME280;61342;51.442;7.370;2022-12-13T03:16:57;99647.81;;;-2.29;78.14
71239;BME280;61342;51.442;7.370;2022-12-13T03:18:06;99645.75;;;-2.29;77.76
71239;BME280;61342;51.442;7.370;2022-12-13T03:19:14;99651.84;;;-2.30;78.05
71239;BME280;61342;51.442;7.370;2022-12-13T03:20:17;99647.81;;;-2.29;78.09
71239;BME280;61342;51.442;7.370;2022-12-13T03:21:17;99644.19;;;-2.30;77.79
71239;BME280;61342;51.442;7.370;2022-12-13T03:22:18;99648.56;;;-2.29;77.82
71239;BME280;61342;51.442;7.370;2022-12-13T03:23:20;99643.72;;;-2.29;77.84
71239;BME280;61342;51.442;7.370;2022-12-13T03:24:20;99650.91;;;-2.28;78.23
71239;BME280;61342;51.442;7.370;2022-12-13T03:25:24;99638.69;;;-2.33;77.86
71239;BME280;61342;51.442;7.370;2022-12-13T03:26:26;99647.81;;;-2.29;78.08
71239;BME280;61342;51.442;7.370;2022-12-13T03:27:26;99644.19;;;-2.30;78.09
71239;BME280;61342;51.442;7.370;2022-12-13T03:28:27;99646.69;;;-2.32;78.08
71239;BME280;61342;51.442;7.370;2022-12-13T03:29:27;99648.22;;;-2.31;77.99
71239;BME280;61342;51.442;7.370;2022-12-13T03:30:29;99653.44;;;-2.29;77.99
71239;BME280;61342;51.442;7.370;2022-12-13T03:31:30;99650.63;;;-2.29;78.11
71239;BME280;61342;51.442;7.370;2022-12-13T03:32:30;99651.38;;;-2.29;78.05
71239;BME280;61342;51.442;7.370;2022-12-13T03:33:31;99644.19;;;-2.30;77.79
71239;BME280;61342;51.442;7.370;2022-12-13T03:34:31;99651.03;;;-2.31;77.89
71239;BME280;61342;51.442;7.370;2022-12-13T03:35:32;99643.88;;;-2.32;77.95
71239;BME280;61342;51.442;7.370;2022-12-13T03:36:33;99653.44;;;-2.29;78.09
71239;BME280;61342;51.442;7.370;2022-12-13T03:37:33;99649.50;;;-2.32;77.76
71239;BME280;61342;51.442;7.370;2022-12-13T03:38:34;99642.41;;;-2.36;78.08
71239;BME280;61342;51.442;7.370;2022-12-13T03:39:35;99641.50;;;-2.33;78.11
71239;BME280;61342;51.442;7.370;2022-12-13T03:40:35;99629.59;;;-2.37;77.78
71239;BME280;61342;51.442;7.370;2022-12-13T03:41:36;99639.78;;;-2.31;78.11
71239;BME280;61342;51.442;7.370;2022-12-13T03:42:36;99641.84;;;-2.31;77.88
71239;BME280;61342;51.442;7.370;2022-12-13T03:43:37;99639.94;;;-2.34;78.00
71239;BME280;61342;51.442;7.370;2022-12-13T03:44:38;99635.09;;;-2.34;78.12
71239;BME280;61342;51.442;7.370;2022-12-13T03:45:39;99640.25;;;-2.32;78.03
71239;BME280;61342;51.442;7.370;2022-12-13T03:46:40;99641.50;;;-2.33;78.12
71239;BME280;61342;51.442;7.370;2022-12-13T03:47:40;99632.09;;;-2.39;77.99
71239;BME280;61342;51.442;7.370;2022-12-13T03:48:41;99635.88;;;-2.33;77.82
71239;BME280;61342;51.442;7.370;2022-12-13T03:49:41;99636.66;;;-2.33;78.15
71239;BME280;61342;51.442;7.370;2022-12-13T03:50:42;99631.16;;;-2.36;77.75
71239;BME280;61342;51.442;7.370;2022-12-13T03:51:43;99628.81;;;-2.38;77.92
71239;BME280;61342;51.442;7.370;2022-12-13T03:52:43;99635.88;;;-2.33;77.81
71239;BME280;61342;51.442;7.370;2022-12-13T03:53:44;99633.84;;;-2.33;77.93
71239;BME280;61342;51.442;7.370;2022-12-13T03:54:44;99626.00;;;-2.38;77.97
71239;BME280;61342;51.442;7.370;2022-12-13T03:55:44;99632.28;;;-2.34;78.04
71239;BME280;61342;51.442;7.370;2022-12-13T03:56:44;99627.41;;;-2.33;77.58
71239;BME280;61342;51.442;7.370;2022-12-13T03:57:45;99627.13;;;-2.35;77.72
71239;BME280;61342;51.442;7.370;2022-12-13T03:58:45;99630.25;;;-2.33;77.86
71239;BME280;61342;51.442;7.370;2022-12-13T03:59:45;99615.31;;;-2.43;77.75
71239;BME280;61342;51.442;7.370;2022-12-13T04:00:46;99628.69;;;-2.34;77.66
71239;BME280;61342;51.442;7.370;2022-12-13T04:01:46;99619.13;;;-2.37;77.77
71239;BME280;61342;51.442;7.370;2022-12-13T04:02:47;99623.97;;;-2.37;77.76
71239;BME280;61342;51.442;7.370;2022-12-13T04:03:47;99617.56;;;-2.38;78.03
71239;BME280;61342;51.442;7.370;2022-12-13T04:04:48;99621.59;;;-2.39;77.67
71239;BME280;61342;51.442;7.370;2022-12-13T04:05:48;99613.63;;;-2.40;77.84
71239;BME280;61342;51.442;7.370;2022-12-13T04:06:48;99613.31;;;-2.42;77.97
71239;BME280;61342;51.442;7.370;2022-12-13T04:07:49;99622.88;;;-2.40;77.53
71239;BME280;61342;51.442;7.370;2022-12-13T04:08:50;99620.84;;;-2.39;77.80
71239;BME280;61342;51.442;7.370;2022-12-13T04:09:51;99616.13;;;-2.42;77.81
71239;BME280;61342;51.442;7.370;2022-12-13T04:10:51;99629.28;;;-2.39;77.62
71239;BME280;61342;51.442;7.370;2022-12-13T04:11:51;99626.13;;;-2.41;77.99
71239;BME280;61342;51.442;7.370;2022-12-13T04:13:10;99632.66;;;-2.44;77.64
71239;BME280;61342;51.442;7.370;2022-12-13T04:14:29;99628.63;;;-2.43;77.94
71239;BME280;61342;51.442;7.370;2022-12-13T04:15:29;99621.56;;;-2.48;77.63
71239;BME280;61342;51.442;7.370;2022-12-13T04:16:30;99635.16;;;-2.46;77.64
71239;BME280;61342;51.442;7.370;2022-12-13T04:17:30;99628.44;;;-2.49;77.61
71239;BME280;61342;51.442;7.370;2022-12-13T04:18:30;99630.78;;;-2.47;77.75
71239;BME280;61342;51.442;7.370;2022-12-13T04:19:31;99623.72;;;-2.52;77.75
71239;BME280;61342;51.442;7.370;2022-12-13T04:20:31;99618.88;;;-2.51;77.84
71239;BME280;61342;51.442;7.370;2022-12-13T04:21:31;99629.00;;;-2.54;77.58
71239;BME280;61342;51.442;7.370;2022-12-13T04:22:32;99628.22;;;-2.54;77.86
71239;BME280;61342;51.442;7.370;2022-12-13T04:23:32;99628.53;;;-2.52;77.57
71239;BME280;61342;51.442;7.370;2022-12-13T04:24:32;99637.31;;;-2.50;77.53
71239;BME280;61342;51.442;7.370;2022-12-13T04:25:33;99634.97;;;-2.52;77.77
71239;BME280;61342;51.442;7.370;2022-12-13T04:26:33;99628.66;;;-2.56;77.75
71239;BME280;61342;51.442;7.370;2022-12-13T04:27:33;99629.00;;;-2.54;77.57
71239;BME280;61342;51.442;7.370;2022-12-13T04:28:34;99635.88;;;-2.55;77.55
71239;BME280;61342;51.442;7.370;2022-12-13T04:29:34;99632.59;;;-2.53;77.46
71239;BME280;61342;51.442;7.370;2022-12-13T04:30:35;99635.09;;;-2.55;77.60
71239;BME280;61342;51.442;7.370;2022-12-13T04:31:35;99626.31;;;-2.57;77.51
71239;BME280;61342;51.442;7.370;2022-12-13T04:32:36;99615.44;;;-2.68;77.77
71239;BME280;61342;51.442;7.370;2022-12-13T04:33:36;99629.59;;;-2.59;77.75
71239;BME280;61342;51.442;7.370;2022-12-13T04:34:36;99634.44;;;-2.59;77.32
71239;BME280;61342;51.442;7.370;2022-12-13T04:35:39;99621.63;;;-2.60;77.59
71239;BME280;61342;51.442;7.370;2022-12-13T04:36:40;99636.00;;;-2.58;77.55
71239;BME280;61342;51.442;7.370;2022-12-13T04:37:41;99626.91;;;-2.62;77.82
71239;BME280;61342;51.442;7.370;2022-12-13T04:38:41;99636.44;;;-2.60;77.80
71239;BME280;61342;51.442;7.370;2022-12-13T04:39:41;99629.75;;;-2.62;77.66
71239;BME280;61342;51.442;7.370;2022-12-13T04:40:42;99628.16;;;-2.63;77.77
71239;BME280;61342;51.442;7.370;2022-12-13T04:41:42;99628.16;;;-2.63;77.65
71239;BME280;61342;51.442;7.370;2022-12-13T04:42:42;99624.53;;;-2.64;77.81
71239;BME280;61342;51.442;7.370;2022-12-13T04:43:44;99629.75;;;-2.62;77.76
71239;BME280;61342;51.442;7.370;2022-12-13T04:44:49;99625.81;;;-2.65;77.87
71239;BME280;61342;51.442;7.370;2022-12-13T04:45:49;99625.81;;;-2.65;77.42
71239;BME280;61342;51.442;7.370;2022-12-13T04:46:50;99616.91;;;-2.63;77.85
71239;BME280;61342;51.442;7.370;2022-12-13T04:47:50;99605.59;;;-2.72;77.54
71239;BME280;61342;51.442;7.370;2022-12-13T04:48:50;99629.38;;;-2.64;77.99
71239;BME280;61342;51.442;7.370;2022-12-13T04:49:51;99609.41;;;-2.66;77.53
71239;BME280;61342;51.442;7.370;2022-12-13T04:50:51;99617.50;;;-2.68;77.53
71239;BME280;61342;51.442;7.370;2022-12-13T04:51:51;99610.28;;;-2.69;77.52
71239;BME280;61342;51.442;7.370;2022-12-13T04:52:52;99612.63;;;-2.68;77.81
71239;BME280;61342;51.442;7.370;2022-12-13T04:53:52;99610.75;;;-2.71;77.79
71239;BME280;61342;51.442;7.370;2022-12-13T04:54:52;99602.00;;;-2.73;77.64
71239;BME280;61342;51.442;7.370;2022-12-13T04:55:53;99612.31;;;-2.70;77.83
71239;BME280;61342;51.442;7.370;2022-12-13T04:56:53;99604.00;;;-2.73;77.89
71239;BME280;61342;51.442;7.370;2022-12-13T04:57:53;99606.69;;;-2.70;77.64
71239;BME280;61342;51.442;7.370;2022-12-13T04:58:54;99604.00;;;-2.73;78.00
71239;BME280;61342;51.442;7.370;2022-12-13T04:59:54;99607.47;;;-2.69;77.51
71239;BME280;61342;51.442;7.370;2022-12-13T05:00:55;99611.09;;;-2.69;77.64
71239;BME280;61342;51.442;7.370;2022-12-13T05:01:55;99595.47;;;-2.70;77.58
71239;BME280;61342;51.442;7.370;2022-12-13T05:02:56;99609.06;;;-2.68;77.68
71239;BME280;61342;51.442;7.370;2022-12-13T05:03:56;99591.78;;;-2.79;78.06
71239;BME280;61342;51.442;7.370;2022-12-13T05:04:57;99599.66;;;-2.74;77.63
71239;BME280;61342;51.442;7.370;2022-12-13T05:05:57;99597.16;;;-2.72;77.68
71239;BME280;61342;51.442;7.370;2022-12-13T05:06:57;99600.31;;;-2.70;77.68
71239;BME280;61342;51.442;7.370;2022-12-13T05:07:58;99610.75;;;-2.71;77.83
71239;BME280;61342;51.442;7.370;2022-12-13T05:09:00;99590.03;;;-2.86;77.61
71239;BME280;61342;51.442;7.370;2022-12-13T05:10:00;99585.19;;;-2.85;77.81
71239;BME280;61342;51.442;7.370;2022-12-13T05:11:01;99598.84;;;-2.75;77.94
71239;BME280;61342;51.442;7.370;2022-12-13T05:12:02;99568.22;;;-2.94;77.58
71239;BME280;61342;51.442;7.370;2022-12-13T05:13:03;99582.72;;;-2.83;77.57
71239;BME280;61342;51.442;7.370;2022-12-13T05:14:04;99580.00;;;-2.87;77.64
71239;BME280;61342;51.442;7.370;2022-12-13T05:15:05;99602.47;;;-2.74;77.91
71239;BME280;61342;51.442;7.370;2022-12-13T05:16:06;99587.28;;;-2.77;77.84
71239;BME280;61342;51.442;7.370;2022-12-13T05:17:07;99568.69;;;-2.95;77.83
71239;BME280;61342;51.442;7.370;2022-12-13T05:18:09;99579.91;;;-2.83;77.73
71239;BME280;61342;51.442;7.370;2022-12-13T05:19:09;99574.06;;;-2.88;77.99
71239;BME280;61342;51.442;7.370;2022-12-13T05:20:10;99563.28;;;-2.90;77.94
71239;BME280;61342;51.442;7.370;2022-12-13T05:21:11;99591.66;;;-2.76;77.84
71239;BME280;61342;51.442;7.370;2022-12-13T05:22:15;99576.75;;;-2.85;77.83
71239;BME280;61342;51.442;7.370;2022-12-13T05:23:17;99568.56;;;-2.92;77.88
71239;BME280;61342;51.442;7.370;2022-12-13T05:24:18;99573.16;;;-2.86;77.67
71239;BME280;61342;51.442;7.370;2022-12-13T05:25:18;99553.88;;;-2.96;77.59
71239;BME280;61342;51.442;7.370;2022-12-13T05:26:19;99586.50;;;-2.77;77.66
71239;BME280;61342;51.442;7.370;2022-12-13T05:27:19;99567.66;;;-2.89;77.80
71239;BME280;61342;51.442;7.370;2022-12-13T05:28:20;99578.84;;;-2.77;78.00
71239;BME280;61342;51.442;7.370;2022-12-13T05:29:20;99582.91;;;-2.78;77.72
71239;BME280;61342;51.442;7.370;2022-12-13T05:30:21;99565.41;;;-2.94;77.99
71239;BME280;61342;51.442;7.370;2022-12-13T05:31:21;99567.06;;;-2.84;77.72
71239;BME280;61342;51.442;7.370;2022-12-13T05:32:22;99557.66;;;-2.90;77.68
71239;BME280;61342;51.442;7.370;2022-12-13T05:33:23;99570.81;;;-2.87;78.11
71239;BME280;61342;51.442;7.370;2022-12-13T05:34:23;99569.81;;;-2.93;77.84
71239;BME280;61342;51.442;7.370;2022-12-13T05:35:24;99549.16;;;-2.99;77.84
71239;BME280;61342;51.442;7.370;2022-12-13T05:36:24;99557.91;;;-2.97;78.10
71239;BME280;61342;51.442;7.370;2022-12-13T05:37:25;99587.72;;;-2.78;77.93
71239;BME280;61342;51.442;7.370;2022-12-13T05:38:25;99579.25;;;-2.87;77.85
71239;BME280;61342;51.442;7.370;2022-12-13T05:39:26;99575.78;;;-2.91;78.14
71239;BME280;61342;51.442;7.370;2022-12-13T05:40:28;99572.63;;;-2.93;77.88
71239;BME280;61342;51.442;7.370;2022-12-13T05:41:32;99575.78;;;-2.91;78.10
71239;BME280;61342;51.442;7.370;2022-12-13T05:42:33;99563.06;;;-2.95;78.00
71239;BME280;61342;51.442;7.370;2022-12-13T05:43:33;99592.25;;;-2.81;78.00
71239;BME280;61342;51.442;7.370;2022-12-13T05:44:34;99583.94;;;-2.84;77.84
71239;BME280;61342;51.442;7.370;2022-12-13T05:45:34;99590.34;;;-2.84;78.11
71239;BME280;61342;51.442;7.370;2022-12-13T05:46:35;99562.88;;;-3.01;77.88
71239;BME280;61342;51.442;7.370;2022-12-13T05:47:36;99587.97;;;-2.85;78.00
71239;BME280;61342;51.442;7.370;2022-12-13T05:48:36;99589.56;;;-2.84;77.78
71239;BME280;61342;51.442;7.370;2022-12-13T05:49:37;99587.97;;;-2.85;77.83
71239;BME280;61342;51.442;7.370;2022-12-13T05:50:37;99582.94;;;-2.90;78.18
71239;BME280;61342;51.442;7.370;2022-12-13T05:51:37;99575.44;;;-2.93;78.08
71239;BME280;61342;51.442;7.370;2022-12-13T05:52:38;99584.97;;;-2.90;78.02